sensor_id;sensor_type;location;lat;lon;timestamp;pressure;altitude;pressure_sealevel;temperature;humidity
60918;BME280;46792;38.854;-9.384;2023-01-28T00:01:24;99980.00;;;7.54;74.60
60918;BME280;46792;38.854;-9.384;2023-01-28T00:03:28;99977.56;;;7.53;74.58
60918;BME280;46792;38.854;-9.384;2023-01-28T00:05:32;99980.34;;;7.58;74.11
60918;BME280;46792;38.854;-9.384;2023-01-28T00:07:32;99981.28;;;7.64;73.80
60918;BME280;46792;38.854;-9.384;2023-01-28T00:09:33;99972.66;;;7.61;73.98
60918;BME280;46792;38.854;-9.384;2023-01-28T00:11:34;99966.22;;;7.63;73.94
60918;BME280;46792;38.854;-9.384;2023-01-28T00:15:55;99976.28;;;7.55;74.31
60918;BME280;46792;38.854;-9.384;2023-01-28T00:17:56;99972.06;;;7.48;74.60
60918;BME280;46792;38.854;-9.384;2023-01-28T00:19:57;99965.75;;;7.42;74.86
60918;BME280;46792;38.854;-9.384;2023-01-28T00:21:58;99970.66;;;7.45;75.04
60918;BME280;46792;38.854;-9.384;2023-01-28T00:23:58;99968.19;;;7.43;74.99
60918;BME280;46792;38.854;-9.384;2023-01-28T00:26:21;99968.91;;;7.39;75.08
60918;BME280;46792;38.854;-9.384;2023-01-28T00:28:41;99974.53;;;7.37;75.24
60918;BME280;46792;38.854;-9.384;2023-01-28T00:30:42;99968.56;;;7.35;75.26
60918;BME280;46792;38.854;-9.384;2023-01-28T00:32:43;99968.91;;;7.39;75.36
60918;BME280;46792;38.854;-9.384;2023-01-28T00:35:02;99968.19;;;7.31;75.37
60918;BME280;46792;38.854;-9.384;2023-01-28T00:42:18;99959.44;;;7.24;75.49
60918;BME280;46792;38.854;-9.384;2023-01-28T00:44:19;99968.53;;;7.23;75.64
60918;BME280;46792;38.854;-9.384;2023-01-28T00:46:21;99966.41;;;7.13;76.05
60918;BME280;46792;38.854;-9.384;2023-01-28T00:48:53;99956.25;;;7.15;76.21
60918;BME280;46792;38.854;-9.384;2023-01-28T00:50:56;99956.03;;;7.17;76.16
60918;BME280;46792;38.854;-9.384;2023-01-28T00:52:57;99968.28;;;7.13;76.56
60918;BME280;46792;38.854;-9.384;2023-01-28T00:54:58;99959.28;;;7.19;75.89
60918;BME280;46792;38.854;-9.384;2023-01-28T00:57:00;99961.19;;;7.19;76.00
60918;BME280;46792;38.854;-9.384;2023-01-28T00:59:19;99955.81;;;7.19;76.12
60918;BME280;46792;38.854;-9.384;2023-01-28T01:01:24;99963.28;;;7.17;76.23
60918;BME280;46792;38.854;-9.384;2023-01-28T01:08:43;99964.66;;;7.19;76.81
60918;BME280;46792;38.854;-9.384;2023-01-28T01:10:49;99956.97;;;7.11;77.18
60918;BME280;46792;38.854;-9.384;2023-01-28T01:12:50;99963.38;;;7.10;77.17
60918;BME280;46792;38.854;-9.384;2023-01-28T01:14:51;99967.91;;;7.09;77.12
60918;BME280;46792;38.854;-9.384;2023-01-28T01:16:51;99964.88;;;7.06;77.55
60918;BME280;46792;38.854;-9.384;2023-01-28T01:18:53;99965.00;;;7.11;77.81
60918;BME280;46792;38.854;-9.384;2023-01-28T01:20:54;99965.94;;;7.05;77.71
60918;BME280;46792;38.854;-9.384;2023-01-28T01:22:58;99962.44;;;7.04;77.95
60918;BME280;46792;38.854;-9.384;2023-01-28T01:25:00;99955.28;;;6.98;78.48
60918;BME280;46792;38.854;-9.384;2023-01-28T01:27:01;99965.88;;;6.93;78.90
60918;BME280;46792;38.854;-9.384;2023-01-28T01:29:02;99959.47;;;6.94;78.74
60918;BME280;46792;38.854;-9.384;2023-01-28T01:31:21;99955.25;;;6.86;79.16
60918;BME280;46792;38.854;-9.384;2023-01-28T01:33:23;99956.50;;;6.72;79.57
60918;BME280;46792;38.854;-9.384;2023-01-28T01:35:23;99959.38;;;6.58;80.68
60918;BME280;46792;38.854;-9.384;2023-01-28T01:37:25;99952.34;;;6.57;80.79
60918;BME280;46792;38.854;-9.384;2023-01-28T01:39:45;99959.22;;;6.53;81.24
60918;BME280;46792;38.854;-9.384;2023-01-28T01:41:45;99965.19;;;6.55;81.08
60918;BME280;46792;38.854;-9.384;2023-01-28T01:43:47;99964.91;;;6.45;81.87
60918;BME280;46792;38.854;-9.384;2023-01-28T01:45:58;99958.50;;;6.46;81.82
60918;BME280;46792;38.854;-9.384;2023-01-28T01:48:05;99960.59;;;6.44;81.91
60918;BME280;46792;38.854;-9.384;2023-01-28T01:50:20;99963.94;;;6.39;82.42
60918;BME280;46792;38.854;-9.384;2023-01-28T01:52:26;99963.94;;;6.39;82.58
60918;BME280;46792;38.854;-9.384;2023-01-28T01:54:51;99961.81;;;6.29;82.69
60918;BME280;46792;38.854;-9.384;2023-01-28T01:56:54;99962.53;;;6.36;82.63
60918;BME280;46792;38.854;-9.384;2023-01-28T01:58:57;99960.22;;;6.40;82.48
60918;BME280;46792;38.854;-9.384;2023-01-28T02:00:58;99967.00;;;6.43;82.23
60918;BME280;46792;38.854;-9.384;2023-01-28T02:03:00;99966.09;;;6.49;82.24
60918;BME280;46792;38.854;-9.384;2023-01-28T02:05:02;99965.59;;;6.40;82.15
60918;BME280;46792;38.854;-9.384;2023-01-28T02:07:03;99971.59;;;6.35;82.13
60918;BME280;46792;38.854;-9.384;2023-01-28T02:09:26;99970.81;;;6.35;82.42
60918;BME280;46792;38.854;-9.384;2023-01-28T02:11:29;99974.28;;;6.35;82.25
60918;BME280;46792;38.854;-9.384;2023-01-28T02:13:38;99964.41;;;6.36;82.23
60918;BME280;46792;38.854;-9.384;2023-01-28T02:16:00;99968.22;;;6.28;82.19
60918;BME280;46792;38.854;-9.384;2023-01-28T02:18:19;99966.41;;;6.22;81.81
60918;BME280;46792;38.854;-9.384;2023-01-28T02:20:24;99977.66;;;6.31;81.91
60918;BME280;46792;38.854;-9.384;2023-01-28T02:28:09;99972.28;;;6.31;81.66
60918;BME280;46792;38.854;-9.384;2023-01-28T02:30:18;99970.56;;;6.36;81.35
60918;BME280;46792;38.854;-9.384;2023-01-28T02:32:41;99976.84;;;6.30;80.90
60918;BME280;46792;38.854;-9.384;2023-01-28T02:34:49;99973.03;;;6.38;80.65
60918;BME280;46792;38.854;-9.384;2023-01-28T02:36:57;99979.81;;;6.41;80.43
60918;BME280;46792;38.854;-9.384;2023-01-28T02:39:03;99973.84;;;6.38;80.56
60918;BME280;46792;38.854;-9.384;2023-01-28T02:41:12;99974.19;;;6.42;80.55
60918;BME280;46792;38.854;-9.384;2023-01-28T02:43:15;99967.88;;;6.36;80.45
60918;BME280;46792;38.854;-9.384;2023-01-28T02:45:32;99982.03;;;6.44;80.48
60918;BME280;46792;38.854;-9.384;2023-01-28T02:48:06;99981.69;;;6.40;80.59
60918;BME280;46792;38.854;-9.384;2023-01-28T02:50:11;99980.25;;;6.37;80.64
60918;BME280;46792;38.854;-9.384;2023-01-28T03:01:55;99979.69;;;6.17;80.79
60918;BME280;46792;38.854;-9.384;2023-01-28T03:04:03;99981.91;;;6.20;80.82
60918;BME280;46792;38.854;-9.384;2023-01-28T03:06:11;99978.94;;;6.09;81.20
60918;BME280;46792;38.854;-9.384;2023-01-28T03:08:14;99985.66;;;6.00;81.67
60918;BME280;46792;38.854;-9.384;2023-01-28T03:10:36;99978.34;;;6.07;81.00
60918;BME280;46792;38.854;-9.384;2023-01-28T03:12:39;99974.78;;;6.14;80.75
60918;BME280;46792;38.854;-9.384;2023-01-28T03:15:26;99980.13;;;6.14;80.50
60918;BME280;46792;38.854;-9.384;2023-01-28T03:18:03;99971.50;;;6.12;80.04
60918;BME280;46792;38.854;-9.384;2023-01-28T03:20:29;99974.44;;;6.03;80.26
60918;BME280;46792;38.854;-9.384;2023-01-28T03:22:54;99979.25;;;5.94;80.82
60918;BME280;46792;38.854;-9.384;2023-01-28T03:28:16;99979.25;;;5.94;81.19
60918;BME280;46792;38.854;-9.384;2023-01-28T03:36:46;99979.19;;;5.83;81.50
60918;BME280;46792;38.854;-9.384;2023-01-28T03:39:08;99976.72;;;5.81;81.20
60918;BME280;46792;38.854;-9.384;2023-01-28T03:47:03;99976.66;;;5.69;81.62
60918;BME280;46792;38.854;-9.384;2023-01-28T03:49:07;99969.66;;;5.68;81.78
60918;BME280;46792;38.854;-9.384;2023-01-28T03:51:08;99976.25;;;5.66;81.56
60918;BME280;46792;38.854;-9.384;2023-01-28T03:59:06;99980.03;;;5.58;81.56
60918;BME280;46792;38.854;-9.384;2023-01-28T04:01:07;99984.19;;;5.54;82.10
60918;BME280;46792;38.854;-9.384;2023-01-28T04:03:08;99976.16;;;5.54;82.01
60918;BME280;46792;38.854;-9.384;2023-01-28T04:05:28;99975.34;;;5.53;81.86
60918;BME280;46792;38.854;-9.384;2023-01-28T04:07:30;99979.53;;;5.42;82.22
60918;BME280;46792;38.854;-9.384;2023-01-28T04:09:43;99973.16;;;5.43;82.47
60918;BME280;46792;38.854;-9.384;2023-01-28T04:12:10;99975.22;;;5.41;82.26
60918;BME280;46792;38.854;-9.384;2023-01-28T04:17:00;99969.88;;;5.41;81.40
60918;BME280;46792;38.854;-9.384;2023-01-28T04:19:00;99968.84;;;5.42;81.56
60918;BME280;46792;38.854;-9.384;2023-01-28T04:21:03;99968.84;;;5.42;81.07
60918;BME280;46792;38.854;-9.384;2023-01-28T04:23:05;99969.44;;;5.44;80.50
60918;BME280;46792;38.854;-9.384;2023-01-28T04:25:08;99963.66;;;5.47;80.41
60918;BME280;46792;38.854;-9.384;2023-01-28T04:38:38;99974.47;;;5.78;79.05
60918;BME280;46792;38.854;-9.384;2023-01-28T04:43:26;99982.06;;;5.81;78.27
60918;BME280;46792;38.854;-9.384;2023-01-28T04:45:53;99978.44;;;5.75;77.90
60918;BME280;46792;38.854;-9.384;2023-01-28T04:48:06;99967.19;;;5.67;78.22
60918;BME280;46792;38.854;-9.384;2023-01-28T04:53:15;99979.38;;;5.62;78.84
60918;BME280;46792;38.854;-9.384;2023-01-28T04:55:30;99979.22;;;5.57;79.33
60918;BME280;46792;38.854;-9.384;2023-01-28T04:57:31;99976.38;;;5.52;79.54
60918;BME280;46792;38.854;-9.384;2023-01-28T04:59:32;99976.22;;;5.47;79.49
60918;BME280;46792;38.854;-9.384;2023-01-28T05:01:51;99980.75;;;5.46;80.09
60918;BME280;46792;38.854;-9.384;2023-01-28T05:03:53;99970.91;;;5.40;79.80
60918;BME280;46792;38.854;-9.384;2023-01-28T05:06:12;99976.25;;;5.40;79.80
60918;BME280;46792;38.854;-9.384;2023-01-28T05:08:16;99975.09;;;5.36;79.76
60918;BME280;46792;38.854;-9.384;2023-01-28T05:10:20;99975.66;;;5.38;79.82
60918;BME280;46792;38.854;-9.384;2023-01-28T05:12:21;99973.22;;;5.37;80.06
60918;BME280;46792;38.854;-9.384;2023-01-28T05:17:06;99981.56;;;5.22;80.62
60918;BME280;46792;38.854;-9.384;2023-01-28T05:19:09;99963.38;;;5.05;81.18
60918;BME280;46792;38.854;-9.384;2023-01-28T05:21:13;99984.50;;;5.13;81.38
60918;BME280;46792;38.854;-9.384;2023-01-28T05:26:11;99983.72;;;5.06;81.47
60918;BME280;46792;38.854;-9.384;2023-01-28T05:28:12;99987.91;;;5.02;81.89
60918;BME280;46792;38.854;-9.384;2023-01-28T05:30:13;99982.59;;;4.95;81.68
60918;BME280;46792;38.854;-9.384;2023-01-28T05:32:14;99998.16;;;5.05;81.46
60918;BME280;46792;38.854;-9.384;2023-01-28T05:34:34;99998.94;;;5.12;81.18
60918;BME280;46792;38.854;-9.384;2023-01-28T05:36:53;100001.41;;;5.07;81.21
60918;BME280;46792;38.854;-9.384;2023-01-28T05:39:20;99999.59;;;5.08;81.64
60918;BME280;46792;38.854;-9.384;2023-01-28T05:41:21;100001.88;;;5.04;81.45
60918;BME280;46792;38.854;-9.384;2023-01-28T05:43:28;100005.75;;;5.08;81.91
60918;BME280;46792;38.854;-9.384;2023-01-28T05:48:40;99993.31;;;5.21;81.10
60918;BME280;46792;38.854;-9.384;2023-01-28T05:51:08;99996.16;;;5.26;81.14
60918;BME280;46792;38.854;-9.384;2023-01-28T05:53:11;99996.31;;;5.31;80.34
60918;BME280;46792;38.854;-9.384;2023-01-28T06:00:13;99991.47;;;5.46;78.19
60918;BME280;46792;38.854;-9.384;2023-01-28T06:02:33;99997.00;;;5.52;77.61
60918;BME280;46792;38.854;-9.384;2023-01-28T06:07:13;99985.13;;;5.41;76.25
60918;BME280;46792;38.854;-9.384;2023-01-28T06:09:16;99979.78;;;5.41;75.98
60918;BME280;46792;38.854;-9.384;2023-01-28T06:11:17;99987.56;;;5.42;76.26
60918;BME280;46792;38.854;-9.384;2023-01-28T06:13:18;99985.13;;;5.41;75.60
60918;BME280;46792;38.854;-9.384;2023-01-28T06:15:37;99988.84;;;5.40;75.46
60918;BME280;46792;38.854;-9.384;2023-01-28T06:18:07;99988.00;;;5.39;75.00
60918;BME280;46792;38.854;-9.384;2023-01-28T06:20:09;99974.25;;;5.36;75.46
60918;BME280;46792;38.854;-9.384;2023-01-28T06:27:38;99995.53;;;5.24;75.05
60918;BME280;46792;38.854;-9.384;2023-01-28T06:29:40;99995.53;;;5.24;74.98
60918;BME280;46792;38.854;-9.384;2023-01-28T06:31:40;100002.72;;;5.30;74.83
60918;BME280;46792;38.854;-9.384;2023-01-28T06:36:19;99997.53;;;5.35;74.41
60918;BME280;46792;38.854;-9.384;2023-01-28T06:38:19;100004.06;;;5.39;74.71
60918;BME280;46792;38.854;-9.384;2023-01-28T06:40:38;100010.25;;;5.40;74.33
60918;BME280;46792;38.854;-9.384;2023-01-28T06:42:39;100009.66;;;5.38;73.87
60918;BME280;46792;38.854;-9.384;2023-01-28T06:44:39;100013.75;;;5.40;73.56
60918;BME280;46792;38.854;-9.384;2023-01-28T06:46:40;100012.28;;;5.44;73.49
60918;BME280;46792;38.854;-9.384;2023-01-28T06:48:41;100005.34;;;5.37;73.36
60918;BME280;46792;38.854;-9.384;2023-01-28T06:50:41;100002.59;;;5.43;73.42
60918;BME280;46792;38.854;-9.384;2023-01-28T06:52:42;100003.88;;;5.41;72.82
60918;BME280;46792;38.854;-9.384;2023-01-28T06:54:43;100007.63;;;5.33;72.58
60918;BME280;46792;38.854;-9.384;2023-01-28T06:56:43;100026.81;;;5.30;72.25
60918;BME280;46792;38.854;-9.384;2023-01-28T06:59:02;100024.94;;;5.30;72.36
60918;BME280;46792;38.854;-9.384;2023-01-28T07:01:03;100013.25;;;5.25;72.40
60918;BME280;46792;38.854;-9.384;2023-01-28T07:03:04;100013.28;;;5.18;72.35
60918;BME280;46792;38.854;-9.384;2023-01-28T07:08:01;100030.56;;;5.22;72.92
60918;BME280;46792;38.854;-9.384;2023-01-28T07:10:02;100022.22;;;5.12;72.77
60918;BME280;46792;38.854;-9.384;2023-01-28T07:12:03;100019.56;;;5.05;73.03
60918;BME280;46792;38.854;-9.384;2023-01-28T07:19:02;100027.59;;;5.05;73.37
60918;BME280;46792;38.854;-9.384;2023-01-28T07:26:18;100025.78;;;4.99;73.61
60918;BME280;46792;38.854;-9.384;2023-01-28T07:28:19;100022.09;;;4.93;73.29
60918;BME280;46792;38.854;-9.384;2023-01-28T07:30:41;100031.16;;;4.92;73.36
60918;BME280;46792;38.854;-9.384;2023-01-28T07:33:00;100038.19;;;4.86;73.22
60918;BME280;46792;38.854;-9.384;2023-01-28T07:35:01;100025.84;;;4.85;73.52
60918;BME280;46792;38.854;-9.384;2023-01-28T07:37:02;100032.25;;;4.84;73.28
60918;BME280;46792;38.854;-9.384;2023-01-28T07:41:41;100029.81;;;4.69;74.01
60918;BME280;46792;38.854;-9.384;2023-01-28T07:43:44;100040.72;;;4.75;73.60
60918;BME280;46792;38.854;-9.384;2023-01-28T07:45:45;100052.63;;;4.79;73.85
60918;BME280;46792;38.854;-9.384;2023-01-28T07:48:24;100049.34;;;4.77;73.24
60918;BME280;46792;38.854;-9.384;2023-01-28T07:50:25;100043.34;;;4.81;72.20
60918;BME280;46792;38.854;-9.384;2023-01-28T07:52:26;100041.47;;;4.89;72.01
60918;BME280;46792;38.854;-9.384;2023-01-28T07:54:27;100051.31;;;4.95;71.41
60918;BME280;46792;38.854;-9.384;2023-01-28T07:56:30;100049.66;;;4.94;71.20
60918;BME280;46792;38.854;-9.384;2023-01-28T08:01:08;100046.75;;;5.02;70.78
60918;BME280;46792;38.854;-9.384;2023-01-28T08:03:12;100055.81;;;5.01;70.46
60918;BME280;46792;38.854;-9.384;2023-01-28T08:07:56;100050.88;;;4.98;71.03
60918;BME280;46792;38.854;-9.384;2023-01-28T08:09:57;100059.09;;;5.03;70.94
60918;BME280;46792;38.854;-9.384;2023-01-28T08:11:57;100066.53;;;5.01;70.68
60918;BME280;46792;38.854;-9.384;2023-01-28T08:13:58;100067.31;;;5.01;70.34
60918;BME280;46792;38.854;-9.384;2023-01-28T08:16:00;100067.28;;;5.08;69.98
60918;BME280;46792;38.854;-9.384;2023-01-28T08:18:01;100073.44;;;5.15;70.36
60918;BME280;46792;38.854;-9.384;2023-01-28T08:20:03;100069.72;;;5.16;70.04
60918;BME280;46792;38.854;-9.384;2023-01-28T08:22:06;100074.03;;;5.17;70.22
60918;BME280;46792;38.854;-9.384;2023-01-28T08:24:07;100075.50;;;5.13;70.03
60918;BME280;46792;38.854;-9.384;2023-01-28T08:26:08;100080.84;;;5.13;70.70
60918;BME280;46792;38.854;-9.384;2023-01-28T08:28:09;100085.41;;;5.13;70.34
60918;BME280;46792;38.854;-9.384;2023-01-28T08:30:10;100087.63;;;5.16;70.58
60918;BME280;46792;38.854;-9.384;2023-01-28T08:32:11;100090.91;;;5.18;70.47
60918;BME280;46792;38.854;-9.384;2023-01-28T08:34:11;100086.56;;;5.24;70.76
60918;BME280;46792;38.854;-9.384;2023-01-28T08:36:12;100088.16;;;5.31;70.85
60918;BME280;46792;38.854;-9.384;2023-01-28T08:38:13;100089.00;;;5.32;70.56
60918;BME280;46792;38.854;-9.384;2023-01-28T08:40:17;100086.25;;;5.39;70.50
60918;BME280;46792;38.854;-9.384;2023-01-28T08:42:18;100088.91;;;5.45;70.53
60918;BME280;46792;38.854;-9.384;2023-01-28T08:44:19;100092.78;;;5.50;70.31
60918;BME280;46792;38.854;-9.384;2023-01-28T08:46:19;100099.13;;;5.55;70.64
60918;BME280;46792;38.854;-9.384;2023-01-28T08:48:20;100099.50;;;5.59;70.19
60918;BME280;46792;38.854;-9.384;2023-01-28T08:50:23;100096.59;;;5.67;69.80
60918;BME280;46792;38.854;-9.384;2023-01-28T08:52:24;100099.41;;;5.72;70.31
60918;BME280;46792;38.854;-9.384;2023-01-28T08:54:25;100112.16;;;5.77;70.15
60918;BME280;46792;38.854;-9.384;2023-01-28T08:56:25;100100.38;;;5.85;70.17
60918;BME280;46792;38.854;-9.384;2023-01-28T08:58:26;100106.47;;;5.92;69.88
60918;BME280;46792;38.854;-9.384;2023-01-28T09:00:28;100104.56;;;5.99;70.21
60918;BME280;46792;38.854;-9.384;2023-01-28T09:02:50;100110.28;;;6.09;69.58
60918;BME280;46792;38.854;-9.384;2023-01-28T09:04:52;100114.75;;;6.16;68.92
60918;BME280;46792;38.854;-9.384;2023-01-28T09:06:53;100109.53;;;6.21;69.11
60918;BME280;46792;38.854;-9.384;2023-01-28T09:09:00;100113.78;;;6.29;69.28
60918;BME280;46792;38.854;-9.384;2023-01-28T09:11:01;100115.53;;;6.42;69.05
60918;BME280;46792;38.854;-9.384;2023-01-28T09:13:12;100114.66;;;6.48;69.01
60918;BME280;46792;38.854;-9.384;2023-01-28T09:15:14;100121.06;;;6.65;68.21
60918;BME280;46792;38.854;-9.384;2023-01-28T09:17:14;100123.69;;;6.72;67.21
60918;BME280;46792;38.854;-9.384;2023-01-28T09:19:17;100122.31;;;6.81;67.52
60918;BME280;46792;38.854;-9.384;2023-01-28T09:21:17;100120.38;;;6.89;67.54
60918;BME280;46792;38.854;-9.384;2023-01-28T09:23:18;100116.69;;;7.02;67.33
60918;BME280;46792;38.854;-9.384;2023-01-28T09:25:18;100119.09;;;7.10;66.75
60918;BME280;46792;38.854;-9.384;2023-01-28T09:27:20;100130.69;;;7.22;65.38
60918;BME280;46792;38.854;-9.384;2023-01-28T09:29:20;100131.88;;;7.26;64.75
60918;BME280;46792;38.854;-9.384;2023-01-28T09:31:21;100120.81;;;7.35;64.30
60918;BME280;46792;38.854;-9.384;2023-01-28T09:33:23;100126.00;;;7.48;64.61
60918;BME280;46792;38.854;-9.384;2023-01-28T09:35:24;100131.06;;;7.56;65.22
60918;BME280;46792;38.854;-9.384;2023-01-28T09:37:24;100135.28;;;7.64;65.89
60918;BME280;46792;38.854;-9.384;2023-01-28T09:39:25;100141.84;;;7.68;64.25
60918;BME280;46792;38.854;-9.384;2023-01-28T09:45:00;100140.19;;;7.79;63.96
60918;BME280;46792;38.854;-9.384;2023-01-28T09:47:04;100129.94;;;7.88;62.46
60918;BME280;46792;38.854;-9.384;2023-01-28T09:49:27;100131.13;;;7.92;62.78
60918;BME280;46792;38.854;-9.384;2023-01-28T09:51:52;100140.13;;;7.98;62.14
60918;BME280;46792;38.854;-9.384;2023-01-28T09:53:56;100137.56;;;8.03;62.51
60918;BME280;46792;38.854;-9.384;2023-01-28T09:56:33;100141.19;;;8.09;62.56
60918;BME280;46792;38.854;-9.384;2023-01-28T09:58:26;100141.78;;;8.22;62.75
60918;BME280;46792;38.854;-9.384;2023-01-28T10:00:40;100144.38;;;8.29;61.45
60918;BME280;46792;38.854;-9.384;2023-01-28T10:17:14;100152.31;;;8.83;59.72
60918;BME280;46792;38.854;-9.384;2023-01-28T10:19:24;100148.53;;;8.96;59.78
60918;BME280;46792;38.854;-9.384;2023-01-28T10:21:38;100144.50;;;9.11;60.04
60918;BME280;46792;38.854;-9.384;2023-01-28T10:24:02;100138.00;;;9.24;59.63
60918;BME280;46792;38.854;-9.384;2023-01-28T10:26:15;100129.44;;;9.27;57.94
60918;BME280;46792;38.854;-9.384;2023-01-28T10:28:21;100144.88;;;9.32;56.73
60918;BME280;46792;38.854;-9.384;2023-01-28T10:30:25;100146.94;;;9.41;57.10
60918;BME280;46792;38.854;-9.384;2023-01-28T10:32:31;100140.28;;;9.44;55.05
60918;BME280;46792;38.854;-9.384;2023-01-28T10:34:36;100142.25;;;9.49;56.07
60918;BME280;46792;38.854;-9.384;2023-01-28T10:36:36;100138.66;;;9.60;57.11
60918;BME280;46792;38.854;-9.384;2023-01-28T10:38:37;100138.03;;;9.70;53.88
60918;BME280;46792;38.854;-9.384;2023-01-28T10:40:40;100138.13;;;9.75;54.23
60918;BME280;46792;38.854;-9.384;2023-01-28T10:42:41;100141.41;;;9.77;53.01
60918;BME280;46792;38.854;-9.384;2023-01-28T10:44:43;100129.47;;;9.73;53.16
60918;BME280;46792;38.854;-9.384;2023-01-28T10:46:47;100128.06;;;9.87;55.43
60918;BME280;46792;38.854;-9.384;2023-01-28T10:49:01;100132.34;;;10.00;54.20
60918;BME280;46792;38.854;-9.384;2023-01-28T10:51:36;100127.25;;;10.04;53.51
60918;BME280;46792;38.854;-9.384;2023-01-28T10:53:42;100132.50;;;10.11;52.18
60918;BME280;46792;38.854;-9.384;2023-01-28T10:57:49;100139.31;;;10.35;49.81
60918;BME280;46792;38.854;-9.384;2023-01-28T10:59:50;100139.66;;;10.22;48.66
60918;BME280;46792;38.854;-9.384;2023-01-28T11:01:56;100140.41;;;10.17;48.66
60918;BME280;46792;38.854;-9.384;2023-01-28T11:03:58;100142.63;;;10.20;49.16
60918;BME280;46792;38.854;-9.384;2023-01-28T11:05:58;100149.72;;;10.27;48.50
60918;BME280;46792;38.854;-9.384;2023-01-28T11:08:26;100153.75;;;10.41;49.06
60918;BME280;46792;38.854;-9.384;2023-01-28T11:10:35;100157.16;;;10.54;49.45
60918;BME280;46792;38.854;-9.384;2023-01-28T11:12:36;100134.91;;;10.63;47.44
60918;BME280;46792;38.854;-9.384;2023-01-28T11:14:37;100132.78;;;10.65;47.26
60918;BME280;46792;38.854;-9.384;2023-01-28T11:16:38;100132.41;;;10.79;46.98
60918;BME280;46792;38.854;-9.384;2023-01-28T11:18:58;100127.00;;;10.79;46.49
60918;BME280;46792;38.854;-9.384;2023-01-28T11:21:03;100129.25;;;10.87;46.98
60918;BME280;46792;38.854;-9.384;2023-01-28T11:23:05;100128.31;;;10.99;47.53
60918;BME280;46792;38.854;-9.384;2023-01-28T11:25:20;100132.25;;;11.13;47.34
60918;BME280;46792;38.854;-9.384;2023-01-28T11:27:28;100128.28;;;11.21;47.00
60918;BME280;46792;38.854;-9.384;2023-01-28T11:29:31;100132.38;;;11.23;46.02
60918;BME280;46792;38.854;-9.384;2023-01-28T11:37:26;100120.34;;;11.36;44.29
60918;BME280;46792;38.854;-9.384;2023-01-28T11:39:27;100118.09;;;11.28;45.47
60918;BME280;46792;38.854;-9.384;2023-01-28T11:43:52;100109.06;;;11.45;45.12
60918;BME280;46792;38.854;-9.384;2023-01-28T12:06:30;100079.09;;;11.51;44.85
60918;BME280;46792;38.854;-9.384;2023-01-28T12:08:46;100069.22;;;11.35;42.96
60918;BME280;46792;38.854;-9.384;2023-01-28T12:46:59;100014.88;;;11.69;47.26
60918;BME280;46792;38.854;-9.384;2023-01-28T12:49:06;100027.38;;;11.75;46.55
60918;BME280;46792;38.854;-9.384;2023-01-28T12:54:05;100006.94;;;11.52;46.50
60918;BME280;46792;38.854;-9.384;2023-01-28T12:56:17;100004.06;;;11.69;48.86
60918;BME280;46792;38.854;-9.384;2023-01-28T12:58:34;99996.28;;;11.78;49.34
60918;BME280;46792;38.854;-9.384;2023-01-28T13:00:47;99994.16;;;11.80;48.57
60918;BME280;46792;38.854;-9.384;2023-01-28T13:05:35;99992.25;;;11.80;50.34
60918;BME280;46792;38.854;-9.384;2023-01-28T13:08:02;99988.44;;;11.76;47.33
60918;BME280;46792;38.854;-9.384;2023-01-28T13:10:28;99981.72;;;11.84;48.33
60918;BME280;46792;38.854;-9.384;2023-01-28T13:12:30;99977.44;;;11.93;49.91
60918;BME280;46792;38.854;-9.384;2023-01-28T13:14:32;99973.84;;;11.77;48.73
60918;BME280;46792;38.854;-9.384;2023-01-28T13:16:33;99966.78;;;11.71;47.96
60918;BME280;46792;38.854;-9.384;2023-01-28T13:20:47;99965.75;;;11.82;46.02
60918;BME280;46792;38.854;-9.384;2023-01-28T13:23:00;99960.09;;;11.84;45.51
60918;BME280;46792;38.854;-9.384;2023-01-28T13:27:39;99954.59;;;11.74;46.70
60918;BME280;46792;38.854;-9.384;2023-01-28T13:30:22;99950.25;;;12.10;46.30
60918;BME280;46792;38.854;-9.384;2023-01-28T13:32:41;99953.25;;;12.19;48.70
60918;BME280;46792;38.854;-9.384;2023-01-28T13:34:42;99948.66;;;12.20;48.05
60918;BME280;46792;38.854;-9.384;2023-01-28T13:36:44;99953.81;;;12.26;47.49
60918;BME280;46792;38.854;-9.384;2023-01-28T13:38:46;99939.69;;;12.14;47.84
60918;BME280;46792;38.854;-9.384;2023-01-28T13:40:59;99942.09;;;12.05;47.28
60918;BME280;46792;38.854;-9.384;2023-01-28T13:45:35;99935.00;;;11.94;48.32
60918;BME280;46792;38.854;-9.384;2023-01-28T13:47:36;99938.47;;;11.89;49.15
60918;BME280;46792;38.854;-9.384;2023-01-28T13:49:41;99935.56;;;12.01;48.28
60918;BME280;46792;38.854;-9.384;2023-01-28T13:51:58;99934.84;;;12.21;48.29
60918;BME280;46792;38.854;-9.384;2023-01-28T13:54:07;99935.69;;;12.32;48.68
60918;BME280;46792;38.854;-9.384;2023-01-28T13:56:24;99928.66;;;12.31;46.96
60918;BME280;46792;38.854;-9.384;2023-01-28T14:10:48;99921.38;;;12.52;45.71
60918;BME280;46792;38.854;-9.384;2023-01-28T14:17:52;99909.75;;;12.52;44.95
60918;BME280;46792;38.854;-9.384;2023-01-28T14:19:56;99914.38;;;12.56;44.97
60918;BME280;46792;38.854;-9.384;2023-01-28T14:21:57;99903.03;;;12.65;46.01
60918;BME280;46792;38.854;-9.384;2023-01-28T14:24:17;99903.84;;;12.70;46.27
60918;BME280;46792;38.854;-9.384;2023-01-28T14:28:45;99900.59;;;12.68;45.15
60918;BME280;46792;38.854;-9.384;2023-01-28T14:30:58;99906.03;;;12.89;47.77
60918;BME280;46792;38.854;-9.384;2023-01-28T14:33:08;99903.28;;;12.78;47.66
60918;BME280;46792;38.854;-9.384;2023-01-28T14:36:00;99905.19;;;12.88;46.85
60918;BME280;46792;38.854;-9.384;2023-01-28T14:37:42;99893.28;;;13.05;46.43
60918;BME280;46792;38.854;-9.384;2023-01-28T14:39:52;99903.03;;;12.85;48.29
60918;BME280;46792;38.854;-9.384;2023-01-28T14:42:23;99897.03;;;12.52;50.54
60918;BME280;46792;38.854;-9.384;2023-01-28T14:44:36;99893.53;;;12.62;48.24
60918;BME280;46792;38.854;-9.384;2023-01-28T14:46:44;99901.66;;;12.67;48.82
60918;BME280;46792;38.854;-9.384;2023-01-28T14:58:18;99893.28;;;12.63;42.47
60918;BME280;46792;38.854;-9.384;2023-01-28T15:00:24;99896.25;;;12.72;41.63
60918;BME280;46792;38.854;-9.384;2023-01-28T15:05:26;99895.97;;;13.20;41.08
60918;BME280;46792;38.854;-9.384;2023-01-28T15:07:27;99888.09;;;13.24;40.55
60918;BME280;46792;38.854;-9.384;2023-01-28T15:09:28;99889.75;;;13.20;40.15
60918;BME280;46792;38.854;-9.384;2023-01-28T15:11:29;99887.28;;;13.18;40.42